sensor_id;sensor_type;location;lat;lon;timestamp;P1;durP1;ratioP1;P2;durP2;ratioP2
74851;SDS011;63400;50.650;6.832;2023-03-18T00:00:58;5.43;;;1.40;;
74851;SDS011;63400;50.650;6.832;2023-03-18T00:03:29;2.72;;;1.40;;
74851;SDS011;63400;50.650;6.832;2023-03-18T00:06:03;2.50;;;1.23;;
74851;SDS011;63400;50.650;6.832;2023-03-18T00:08:30;6.10;;;2.15;;
74851;SDS011;63400;50.650;6.832;2023-03-18T00:10:57;5.18;;;1.40;;
74851;SDS011;63400;50.650;6.832;2023-03-18T00:13:23;3.03;;;1.40;;
74851;SDS011;63400;50.650;6.832;2023-03-18T00:15:50;3.50;;;1.40;;
74851;SDS011;63400;50.650;6.832;2023-03-18T00:18:16;4.15;;;1.33;;
74851;SDS011;63400;50.650;6.832;2023-03-18T00:20:43;4.10;;;2.00;;
74851;SDS011;63400;50.650;6.832;2023-03-18T00:23:09;6.20;;;2.13;;
74851;SDS011;63400;50.650;6.832;2023-03-18T00:25:36;5.90;;;2.25;;
74851;SDS011;63400;50.650;6.832;2023-03-18T00:30:28;3.42;;;1.52;;
74851;SDS011;63400;50.650;6.832;2023-03-18T00:32:54;2.55;;;1.02;;
74851;SDS011;63400;50.650;6.832;2023-03-18T00:35:20;3.88;;;1.48;;
74851;SDS011;63400;50.650;6.832;2023-03-18T00:37:45;6.28;;;1.30;;
74851;SDS011;63400;50.650;6.832;2023-03-18T00:40:12;2.80;;;1.55;;
74851;SDS011;63400;50.650;6.832;2023-03-18T00:42:45;4.13;;;1.40;;
74851;SDS011;63400;50.650;6.832;2023-03-18T00:45:21;4.93;;;1.70;;
74851;SDS011;63400;50.650;6.832;2023-03-18T00:47:48;3.67;;;1.70;;
74851;SDS011;63400;50.650;6.832;2023-03-18T00:50:15;3.72;;;1.67;;
74851;SDS011;63400;50.650;6.832;2023-03-18T00:52:41;2.80;;;1.40;;
74851;SDS011;63400;50.650;6.832;2023-03-18T00:55:08;3.40;;;2.03;;
74851;SDS011;63400;50.650;6.832;2023-03-18T00:57:34;5.50;;;1.80;;
74851;SDS011;63400;50.650;6.832;2023-03-18T01:00:00;4.88;;;1.70;;
74851;SDS011;63400;50.650;6.832;2023-03-18T01:02:25;4.72;;;2.42;;
74851;SDS011;63400;50.650;6.832;2023-03-18T01:04:52;5.13;;;1.75;;
74851;SDS011;63400;50.650;6.832;2023-03-18T01:07:17;6.50;;;1.67;;
74851;SDS011;63400;50.650;6.832;2023-03-18T01:09:43;4.63;;;1.98;;
74851;SDS011;63400;50.650;6.832;2023-03-18T01:12:09;3.38;;;2.17;;
74851;SDS011;63400;50.650;6.832;2023-03-18T01:14:36;5.10;;;2.42;;
74851;SDS011;63400;50.650;6.832;2023-03-18T01:17:02;4.97;;;2.13;;
74851;SDS011;63400;50.650;6.832;2023-03-18T01:19:29;5.97;;;1.77;;
74851;SDS011;63400;50.650;6.832;2023-03-18T01:21:55;5.65;;;1.88;;
74851;SDS011;63400;50.650;6.832;2023-03-18T01:24:21;5.28;;;2.83;;
74851;SDS011;63400;50.650;6.832;2023-03-18T01:26:46;6.07;;;1.88;;
74851;SDS011;63400;50.650;6.832;2023-03-18T01:29:12;3.78;;;2.58;;
74851;SDS011;63400;50.650;6.832;2023-03-18T01:31:38;6.30;;;2.50;;
74851;SDS011;63400;50.650;6.832;2023-03-18T01:34:03;3.78;;;1.98;;
74851;SDS011;63400;50.650;6.832;2023-03-18T01:36:29;5.65;;;2.25;;
74851;SDS011;63400;50.650;6.832;2023-03-18T01:38:55;4.18;;;2.13;;
74851;SDS011;63400;50.650;6.832;2023-03-18T01:41:22;6.18;;;2.83;;
74851;SDS011;63400;50.650;6.832;2023-03-18T01:43:50;6.60;;;2.70;;
74851;SDS011;63400;50.650;6.832;2023-03-18T01:48:55;5.45;;;2.45;;
74851;SDS011;63400;50.650;6.832;2023-03-18T01:51:21;4.78;;;2.33;;
74851;SDS011;63400;50.650;6.832;2023-03-18T01:53:48;6.82;;;2.70;;
74851;SDS011;63400;50.650;6.832;2023-03-18T01:56:14;4.60;;;2.38;;
74851;SDS011;63400;50.650;6.832;2023-03-18T01:58:42;5.85;;;2.92;;
74851;SDS011;63400;50.650;6.832;2023-03-18T02:01:19;3.92;;;2.72;;
74851;SDS011;63400;50.650;6.832;2023-03-18T02:03:48;6.70;;;2.78;;
74851;SDS011;63400;50.650;6.832;2023-03-18T02:06:15;3.65;;;2.05;;
74851;SDS011;63400;50.650;6.832;2023-03-18T02:08:41;5.20;;;2.15;;
74851;SDS011;63400;50.650;6.832;2023-03-18T02:11:07;5.57;;;2.25;;
74851;SDS011;63400;50.650;6.832;2023-03-18T02:13:37;5.28;;;2.22;;
74851;SDS011;63400;50.650;6.832;2023-03-18T02:16:06;4.85;;;2.42;;
74851;SDS011;63400;50.650;6.832;2023-03-18T02:18:53;4.45;;;2.58;;
74851;SDS011;63400;50.650;6.832;2023-03-18T02:21:24;3.72;;;2.00;;
74851;SDS011;63400;50.650;6.832;2023-03-18T02:29:27;5.47;;;2.35;;
74851;SDS011;63400;50.650;6.832;2023-03-18T02:31:54;4.72;;;2.03;;
74851;SDS011;63400;50.650;6.832;2023-03-18T02:34:21;4.15;;;2.25;;
74851;SDS011;63400;50.650;6.832;2023-03-18T02:36:48;5.43;;;2.53;;
74851;SDS011;63400;50.650;6.832;2023-03-18T02:39:15;4.63;;;2.60;;
74851;SDS011;63400;50.650;6.832;2023-03-18T02:41:41;5.28;;;2.17;;
74851;SDS011;63400;50.650;6.832;2023-03-18T02:44:08;3.83;;;2.55;;
74851;SDS011;63400;50.650;6.832;2023-03-18T02:49:07;4.25;;;2.85;;
74851;SDS011;63400;50.650;6.832;2023-03-18T02:51:33;5.93;;;2.63;;
74851;SDS011;63400;50.650;6.832;2023-03-18T02:54:02;5.95;;;2.30;;
74851;SDS011;63400;50.650;6.832;2023-03-18T02:56:31;7.32;;;3.17;;
74851;SDS011;63400;50.650;6.832;2023-03-18T02:58:56;6.10;;;2.92;;
74851;SDS011;63400;50.650;6.832;2023-03-18T03:01:22;6.35;;;2.67;;
74851;SDS011;63400;50.650;6.832;2023-03-18T03:03:48;5.60;;;2.88;;
74851;SDS011;63400;50.650;6.832;2023-03-18T03:06:14;4.45;;;2.85;;
74851;SDS011;63400;50.650;6.832;2023-03-18T03:08:40;8.43;;;2.75;;
74851;SDS011;63400;50.650;6.832;2023-03-18T03:11:06;7.18;;;2.50;;
74851;SDS011;63400;50.650;6.832;2023-03-18T03:13:32;5.00;;;2.50;;
74851;SDS011;63400;50.650;6.832;2023-03-18T03:15:58;4.05;;;2.83;;
74851;SDS011;63400;50.650;6.832;2023-03-18T03:18:24;6.35;;;2.53;;
74851;SDS011;63400;50.650;6.832;2023-03-18T03:20:50;3.60;;;2.22;;
74851;SDS011;63400;50.650;6.832;2023-03-18T03:23:16;5.13;;;2.33;;
74851;SDS011;63400;50.650;6.832;2023-03-18T03:25:42;4.90;;;2.92;;
74851;SDS011;63400;50.650;6.832;2023-03-18T03:28:12;5.47;;;2.28;;
74851;SDS011;63400;50.650;6.832;2023-03-18T03:30:38;5.63;;;2.50;;
74851;SDS011;63400;50.650;6.832;2023-03-18T03:33:04;5.60;;;1.80;;
74851;SDS011;63400;50.650;6.832;2023-03-18T03:35:30;7.30;;;2.90;;
74851;SDS011;63400;50.650;6.832;2023-03-18T03:37:56;3.97;;;1.95;;
74851;SDS011;63400;50.650;6.832;2023-03-18T03:40:21;3.72;;;2.80;;
74851;SDS011;63400;50.650;6.832;2023-03-18T03:42:47;3.72;;;2.35;;
74851;SDS011;63400;50.650;6.832;2023-03-18T03:45:14;6.18;;;2.30;;
74851;SDS011;63400;50.650;6.832;2023-03-18T03:47:41;7.00;;;2.70;;
74851;SDS011;63400;50.650;6.832;2023-03-18T03:50:13;4.93;;;1.90;;
74851;SDS011;63400;50.650;6.832;2023-03-18T03:52:40;3.85;;;2.38;;
74851;SDS011;63400;50.650;6.832;2023-03-18T03:55:07;3.13;;;1.75;;
74851;SDS011;63400;50.650;6.832;2023-03-18T03:57:35;5.72;;;2.78;;
74851;SDS011;63400;50.650;6.832;2023-03-18T04:00:02;3.40;;;2.25;;
74851;SDS011;63400;50.650;6.832;2023-03-18T04:02:29;6.78;;;2.55;;
74851;SDS011;63400;50.650;6.832;2023-03-18T04:04:55;5.32;;;2.42;;
74851;SDS011;63400;50.650;6.832;2023-03-18T04:07:20;4.85;;;2.53;;
74851;SDS011;63400;50.650;6.832;2023-03-18T04:09:46;5.65;;;2.50;;
74851;SDS011;63400;50.650;6.832;2023-03-18T04:12:11;3.53;;;2.10;;
74851;SDS011;63400;50.650;6.832;2023-03-18T04:14:37;5.47;;;2.55;;
74851;SDS011;63400;50.650;6.832;2023-03-18T04:17:03;5.20;;;2.60;;
74851;SDS011;63400;50.650;6.832;2023-03-18T04:19:29;4.95;;;2.45;;
74851;SDS011;63400;50.650;6.832;2023-03-18T04:21:54;3.15;;;1.77;;
74851;SDS011;63400;50.650;6.832;2023-03-18T04:24:21;4.35;;;2.60;;
74851;SDS011;63400;50.650;6.832;2023-03-18T04:26:47;6.82;;;2.67;;
74851;SDS011;63400;50.650;6.832;2023-03-18T04:29:13;4.65;;;2.05;;
74851;SDS011;63400;50.650;6.832;2023-03-18T04:31:38;5.72;;;3.20;;
74851;SDS011;63400;50.650;6.832;2023-03-18T04:34:04;7.75;;;4.75;;
74851;SDS011;63400;50.650;6.832;2023-03-18T04:36:29;5.00;;;3.58;;
74851;SDS011;63400;50.650;6.832;2023-03-18T04:38:55;5.65;;;3.10;;
74851;SDS011;63400;50.650;6.832;2023-03-18T04:41:24;7.68;;;3.75;;
74851;SDS011;63400;50.650;6.832;2023-03-18T04:43:49;5.07;;;3.13;;
74851;SDS011;63400;50.650;6.832;2023-03-18T04:46:15;5.57;;;2.45;;
74851;SDS011;63400;50.650;6.832;2023-03-18T04:48:41;5.13;;;2.95;;
74851;SDS011;63400;50.650;6.832;2023-03-18T04:51:07;6.28;;;3.72;;
74851;SDS011;63400;50.650;6.832;2023-03-18T04:53:35;6.65;;;3.40;;
74851;SDS011;63400;50.650;6.832;2023-03-18T04:56:01;6.55;;;3.42;;
74851;SDS011;63400;50.650;6.832;2023-03-18T04:58:28;5.47;;;2.72;;
74851;SDS011;63400;50.650;6.832;2023-03-18T05:00:54;7.82;;;3.17;;
74851;SDS011;63400;50.650;6.832;2023-03-18T05:03:19;7.93;;;4.15;;
74851;SDS011;63400;50.650;6.832;2023-03-18T05:05:45;5.75;;;3.05;;
74851;SDS011;63400;50.650;6.832;2023-03-18T05:08:11;13.02;;;5.65;;
74851;SDS011;63400;50.650;6.832;2023-03-18T05:10:37;14.68;;;6.20;;
74851;SDS011;63400;50.650;6.832;2023-03-18T05:13:04;7.75;;;3.80;;
74851;SDS011;63400;50.650;6.832;2023-03-18T05:15:30;5.30;;;3.10;;
74851;SDS011;63400;50.650;6.832;2023-03-18T05:17:56;6.65;;;3.15;;
74851;SDS011;63400;50.650;6.832;2023-03-18T05:20:21;7.40;;;2.80;;
74851;SDS011;63400;50.650;6.832;2023-03-18T05:22:47;7.30;;;3.10;;
74851;SDS011;63400;50.650;6.832;2023-03-18T05:25:13;6.45;;;3.45;;
74851;SDS011;63400;50.650;6.832;2023-03-18T05:27:38;7.43;;;3.58;;
74851;SDS011;63400;50.650;6.832;2023-03-18T05:30:04;7.18;;;3.35;;
74851;SDS011;63400;50.650;6.832;2023-03-18T05:32:31;6.22;;;3.50;;
74851;SDS011;63400;50.650;6.832;2023-03-18T05:34:57;5.32;;;2.92;;
74851;SDS011;63400;50.650;6.832;2023-03-18T05:37:23;4.43;;;2.05;;
74851;SDS011;63400;50.650;6.832;2023-03-18T05:39:49;7.90;;;3.33;;
74851;SDS011;63400;50.650;6.832;2023-03-18T05:42:15;5.72;;;2.92;;
74851;SDS011;63400;50.650;6.832;2023-03-18T05:44:42;6.13;;;3.25;;
74851;SDS011;63400;50.650;6.832;2023-03-18T05:47:10;5.18;;;2.90;;
74851;SDS011;63400;50.650;6.832;2023-03-18T05:49:35;7.90;;;3.42;;
74851;SDS011;63400;50.650;6.832;2023-03-18T05:52:01;5.88;;;3.05;;
74851;SDS011;63400;50.650;6.832;2023-03-18T05:54:27;5.90;;;3.10;;
74851;SDS011;63400;50.650;6.832;2023-03-18T05:56:53;6.10;;;3.40;;
74851;SDS011;63400;50.650;6.832;2023-03-18T05:59:19;5.72;;;2.85;;
74851;SDS011;63400;50.650;6.832;2023-03-18T06:01:46;4.68;;;2.55;;
74851;SDS011;63400;50.650;6.832;2023-03-18T06:04:13;5.53;;;3.22;;
74851;SDS011;63400;50.650;6.832;2023-03-18T06:06:39;5.88;;;3.28;;
74851;SDS011;63400;50.650;6.832;2023-03-18T06:09:06;19.15;;;9.10;;
74851;SDS011;63400;50.650;6.832;2023-03-18T06:11:32;28.05;;;13.13;;
74851;SDS011;63400;50.650;6.832;2023-03-18T06:13:58;13.02;;;6.15;;
74851;SDS011;63400;50.650;6.832;2023-03-18T06:16:23;5.80;;;3.80;;
74851;SDS011;63400;50.650;6.832;2023-03-18T06:18:49;7.25;;;4.20;;
74851;SDS011;63400;50.650;6.832;2023-03-18T06:21:15;7.93;;;3.58;;
74851;SDS011;63400;50.650;6.832;2023-03-18T06:23:41;10.90;;;5.45;;
74851;SDS011;63400;50.650;6.832;2023-03-18T06:26:06;7.68;;;5.07;;
74851;SDS011;63400;50.650;6.832;2023-03-18T06:28:33;6.50;;;4.05;;
74851;SDS011;63400;50.650;6.832;2023-03-18T06:31:00;4.47;;;3.00;;
74851;SDS011;63400;50.650;6.832;2023-03-18T06:33:26;7.13;;;4.15;;
74851;SDS011;63400;50.650;6.832;2023-03-18T06:35:54;7.65;;;3.75;;
74851;SDS011;63400;50.650;6.832;2023-03-18T06:38:20;8.63;;;4.60;;
74851;SDS011;63400;50.650;6.832;2023-03-18T06:40:46;7.07;;;3.40;;
74851;SDS011;63400;50.650;6.832;2023-03-18T06:43:12;5.85;;;3.60;;
74851;SDS011;63400;50.650;6.832;2023-03-18T06:45:38;4.28;;;2.47;;
74851;SDS011;63400;50.650;6.832;2023-03-18T06:48:04;7.20;;;3.55;;
74851;SDS011;63400;50.650;6.832;2023-03-18T06:50:31;5.40;;;2.30;;
74851;SDS011;63400;50.650;6.832;2023-03-18T06:52:57;3.65;;;2.78;;
74851;SDS011;63400;50.650;6.832;2023-03-18T06:55:23;6.03;;;2.55;;
74851;SDS011;63400;50.650;6.832;2023-03-18T06:57:50;9.32;;;5.28;;
74851;SDS011;63400;50.650;6.832;2023-03-18T07:00:16;19.27;;;8.50;;
74851;SDS011;63400;50.650;6.832;2023-03-18T07:02:42;7.10;;;4.38;;
74851;SDS011;63400;50.650;6.832;2023-03-18T07:05:08;5.65;;;4.07;;
74851;SDS011;63400;50.650;6.832;2023-03-18T07:07:34;5.43;;;3.08;;
74851;SDS011;63400;50.650;6.832;2023-03-18T07:10:02;19.48;;;17.45;;
74851;SDS011;63400;50.650;6.832;2023-03-18T07:12:29;10.95;;;9.90;;
74851;SDS011;63400;50.650;6.832;2023-03-18T07:14:54;15.00;;;13.77;;
74851;SDS011;63400;50.650;6.832;2023-03-18T07:17:20;6.30;;;3.58;;
74851;SDS011;63400;50.650;6.832;2023-03-18T07:19:46;5.63;;;3.65;;
74851;SDS011;63400;50.650;6.832;2023-03-18T07:22:12;4.63;;;2.55;;
74851;SDS011;63400;50.650;6.832;2023-03-18T07:24:39;4.38;;;2.35;;
74851;SDS011;63400;50.650;6.832;2023-03-18T07:27:05;3.83;;;2.72;;
74851;SDS011;63400;50.650;6.832;2023-03-18T07:29:30;4.05;;;2.03;;
74851;SDS011;63400;50.650;6.832;2023-03-18T07:31:57;3.97;;;1.85;;
74851;SDS011;63400;50.650;6.832;2023-03-18T07:34:23;3.28;;;1.23;;
74851;SDS011;63400;50.650;6.832;2023-03-18T07:36:48;4.80;;;1.70;;
74851;SDS011;63400;50.650;6.832;2023-03-18T07:39:13;3.53;;;1.88;;
74851;SDS011;63400;50.650;6.832;2023-03-18T07:41:40;4.60;;;2.08;;
74851;SDS011;63400;50.650;6.832;2023-03-18T07:44:05;4.38;;;1.48;;
74851;SDS011;63400;50.650;6.832;2023-03-18T07:46:31;3.55;;;2.05;;
74851;SDS011;63400;50.650;6.832;2023-03-18T07:48:57;3.53;;;1.52;;
74851;SDS011;63400;50.650;6.832;2023-03-18T07:51:22;6.55;;;1.63;;
74851;SDS011;63400;50.650;6.832;2023-03-18T07:53:48;3.30;;;1.40;;
74851;SDS011;63400;50.650;6.832;2023-03-18T07:56:15;3.08;;;1.55;;
74851;SDS011;63400;50.650;6.832;2023-03-18T07:58:41;4.78;;;1.65;;
74851;SDS011;63400;50.650;6.832;2023-03-18T08:01:07;4.82;;;1.58;;
74851;SDS011;63400;50.650;6.832;2023-03-18T08:03:33;4.13;;;1.83;;
74851;SDS011;63400;50.650;6.832;2023-03-18T08:05:59;1.67;;;0.90;;
74851;SDS011;63400;50.650;6.832;2023-03-18T08:08:26;3.65;;;1.60;;
74851;SDS011;63400;50.650;6.832;2023-03-18T08:10:59;3.70;;;1.65;;
74851;SDS011;63400;50.650;6.832;2023-03-18T08:13:26;2.53;;;1.35;;
74851;SDS011;63400;50.650;6.832;2023-03-18T08:15:53;2.60;;;1.55;;
74851;SDS011;63400;50.650;6.832;2023-03-18T08:18:20;2.30;;;1.10;;
74851;SDS011;63400;50.650;6.832;2023-03-18T08:20:46;4.15;;;1.35;;
74851;SDS011;63400;50.650;6.832;2023-03-18T08:23:13;3.65;;;1.42;;
74851;SDS011;63400;50.650;6.832;2023-03-18T08:25:39;3.70;;;1.27;;
74851;SDS011;63400;50.650;6.832;2023-03-18T08:28:05;3.83;;;1.33;;
74851;SDS011;63400;50.650;6.832;2023-03-18T08:30:32;3.17;;;1.60;;
74851;SDS011;63400;50.650;6.832;2023-03-18T08:33:02;3.08;;;1.30;;
74851;SDS011;63400;50.650;6.832;2023-03-18T08:35:28;3.50;;;1.38;;
74851;SDS011;63400;50.650;6.832;2023-03-18T08:37:53;5.07;;;1.20;;
74851;SDS011;63400;50.650;6.832;2023-03-18T08:40:19;3.05;;;1.23;;
74851;SDS011;63400;50.650;6.832;2023-03-18T08:42:48;4.03;;;1.73;;
74851;SDS011;63400;50.650;6.832;2023-03-18T08:45:14;4.35;;;1.40;;
74851;SDS011;63400;50.650;6.832;2023-03-18T08:47:41;5.15;;;2.33;;
74851;SDS011;63400;50.650;6.832;2023-03-18T08:50:07;3.40;;;1.02;;
74851;SDS011;63400;50.650;6.832;2023-03-18T08:52:36;4.55;;;1.75;;
74851;SDS011;63400;50.650;6.832;2023-03-18T08:55:06;2.92;;;1.15;;
74851;SDS011;63400;50.650;6.832;2023-03-18T08:57:33;7.10;;;1.90;;
74851;SDS011;63400;50.650;6.832;2023-03-18T09:00:00;2.17;;;0.93;;
74851;SDS011;63400;50.650;6.832;2023-03-18T09:02:26;2.20;;;1.05;;
74851;SDS011;63400;50.650;6.832;2023-03-18T09:04:52;4.75;;;1.70;;
74851;SDS011;63400;50.650;6.832;2023-03-18T09:09:45;2.17;;;1.25;;
74851;SDS011;63400;50.650;6.832;2023-03-18T09:12:10;4.00;;;1.80;;
74851;SDS011;63400;50.650;6.832;2023-03-18T09:14:38;3.30;;;1.33;;
74851;SDS011;63400;50.650;6.832;2023-03-18T09:17:06;2.17;;;0.88;;
74851;SDS011;63400;50.650;6.832;2023-03-18T09:19:32;3.20;;;1.02;;
74851;SDS011;63400;50.650;6.832;2023-03-18T09:21:57;2.22;;;0.50;;
74851;SDS011;63400;50.650;6.832;2023-03-18T09:24:23;3.08;;;0.60;;
74851;SDS011;63400;50.650;6.832;2023-03-18T09:26:49;3.08;;;0.65;;
74851;SDS011;63400;50.650;6.832;2023-03-18T09:29:14;2.63;;;0.77;;
74851;SDS011;63400;50.650;6.832;2023-03-18T09:31:40;4.57;;;0.80;;
74851;SDS011;63400;50.650;6.832;2023-03-18T09:34:05;2.85;;;1.27;;
74851;SDS011;63400;50.650;6.832;2023-03-18T09:36:31;2.38;;;1.10;;
74851;SDS011;63400;50.650;6.832;2023-03-18T09:38:56;1.88;;;0.60;;
74851;SDS011;63400;50.650;6.832;2023-03-18T09:41:29;2.03;;;0.80;;
74851;SDS011;63400;50.650;6.832;2023-03-18T09:52:07;2.92;;;1.05;;
74851;SDS011;63400;50.650;6.832;2023-03-18T09:54:45;3.33;;;0.98;;
74851;SDS011;63400;50.650;6.832;2023-03-18T09:57:18;2.97;;;1.00;;
74851;SDS011;63400;50.650;6.832;2023-03-18T09:59:51;4.00;;;1.08;;
74851;SDS011;63400;50.650;6.832;2023-03-18T10:02:24;2.67;;;0.77;;
74851;SDS011;63400;50.650;6.832;2023-03-18T10:04:55;2.85;;;0.60;;
74851;SDS011;63400;50.650;6.832;2023-03-18T10:07:30;2.22;;;0.65;;
74851;SDS011;63400;50.650;6.832;2023-03-18T10:10:02;1.85;;;0.50;;
74851;SDS011;63400;50.650;6.832;2023-03-18T10:12:44;1.73;;;0.98;;
74851;SDS011;63400;50.650;6.832;2023-03-18T10:15:14;3.72;;;0.70;;
74851;SDS011;63400;50.650;6.832;2023-03-18T10:20:34;2.35;;;0.70;;
74851;SDS011;63400;50.650;6.832;2023-03-18T10:29:00;2.03;;;0.60;;
74851;SDS011;63400;50.650;6.832;2023-03-18T10:34:14;1.33;;;0.57;;
74851;SDS011;63400;50.650;6.832;2023-03-18T10:37:05;1.83;;;0.70;;
74851;SDS011;63400;50.650;6.832;2023-03-18T10:39:36;2.78;;;0.55;;
74851;SDS011;63400;50.650;6.832;2023-03-18T10:42:14;2.22;;;0.75;;
74851;SDS011;63400;50.650;6.832;2023-03-18T10:44:47;2.70;;;1.02;;
74851;SDS011;63400;50.650;6.832;2023-03-18T10:47:27;1.67;;;0.52;;
74851;SDS011;63400;50.650;6.832;2023-03-18T10:52:40;3.00;;;0.90;;
74851;SDS011;63400;50.650;6.832;2023-03-18T10:55:29;3.40;;;0.60;;
74851;SDS011;63400;50.650;6.832;2023-03-18T10:58:00;2.65;;;0.40;;
74851;SDS011;63400;50.650;6.832;2023-03-18T11:00:32;2.75;;;0.70;;
74851;SDS011;63400;50.650;6.832;2023-03-18T11:02:58;4.53;;;0.82;;
74851;SDS011;63400;50.650;6.832;2023-03-18T11:05:25;1.30;;;0.45;;
74851;SDS011;63400;50.650;6.832;2023-03-18T11:08:07;1.08;;;0.40;;
74851;SDS011;63400;50.650;6.832;2023-03-18T11:10:35;3.08;;;1.00;;
74851;SDS011;63400;50.650;6.832;2023-03-18T11:13:17;1.98;;;0.60;;
74851;SDS011;63400;50.650;6.832;2023-03-18T11:15:47;3.20;;;1.25;;
74851;SDS011;63400;50.650;6.832;2023-03-18T11:18:15;2.97;;;0.43;;
74851;SDS011;63400;50.650;6.832;2023-03-18T11:20:42;3.90;;;0.40;;
74851;SDS011;63400;50.650;6.832;2023-03-18T11:23:16;1.20;;;0.30;;
74851;SDS011;63400;50.650;6.832;2023-03-18T11:25:45;2.53;;;0.73;;
74851;SDS011;63400;50.650;6.832;2023-03-18T11:28:22;2.30;;;0.60;;
74851;SDS011;63400;50.650;6.832;2023-03-18T11:30:56;2.00;;;0.50;;
74851;SDS011;63400;50.650;6.832;2023-03-18T11:33:25;2.60;;;0.50;;
74851;SDS011;63400;50.650;6.832;2023-03-18T11:35:56;2.63;;;0.73;;
74851;SDS011;63400;50.650;6.832;2023-03-18T11:41:17;2.92;;;0.55;;
74851;SDS011;63400;50.650;6.832;2023-03-18T11:47:11;3.90;;;0.32;;
74851;SDS011;63400;50.650;6.832;2023-03-18T11:49:19;2.40;;;0.30;;
74851;SDS011;63400;50.650;6.832;2023-03-18T12:02:58;1.98;;;0.80;;
74851;SDS011;63400;50.650;6.832;2023-03-18T12:08:11;3.15;;;0.63;;
74851;SDS011;63400;50.650;6.832;2023-03-18T12:10:40;4.70;;;0.63;;
74851;SDS011;63400;50.650;6.832;2023-03-18T12:18:33;3.80;;;0.73;;
74851;SDS011;63400;50.650;6.832;2023-03-18T12:21:15;2.30;;;0.73;;
74851;SDS011;63400;50.650;6.832;2023-03-18T12:32:01;3.90;;;0.73;;
74851;SDS011;63400;50.650;6.832;2023-03-18T12:38:21;3.78;;;0.93;;
74851;SDS011;63400;50.650;6.832;2023-03-18T12:43:31;2.40;;;0.40;;
74851;SDS011;63400;50.650;6.832;2023-03-18T12:46:03;2.30;;;0.65;;
74851;SDS011;63400;50.650;6.832;2023-03-18T12:49:00;3.25;;;0.65;;
74851;SDS011;63400;50.650;6.832;2023-03-18T12:54:31;3.65;;;0.90;;
74851;SDS011;63400;50.650;6.832;2023-03-18T12:57:11;2.47;;;0.60;;
74851;SDS011;63400;50.650;6.832;2023-03-18T12:59:56;3.75;;;0.65;;
74851;SDS011;63400;50.650;6.832;2023-03-18T13:05:01;2.55;;;0.47;;
74851;SDS011;63400;50.650;6.832;2023-03-18T13:10:19;2.35;;;0.30;;
74851;SDS011;63400;50.650;6.832;2023-03-18T13:12:46;3.35;;;0.63;;
74851;SDS011;63400;50.650;6.832;2023-03-18T13:34:12;2.42;;;0.70;;
74851;SDS011;63400;50.650;6.832;2023-03-18T13:42:26;2.00;;;0.73;;
74851;SDS011;63400;50.650;6.832;2023-03-18T13:47:27;2.80;;;0.60;;
74851;SDS011;63400;50.650;6.832;2023-03-18T13:49:58;3.58;;;0.60;;
74851;SDS011;63400;50.650;6.832;2023-03-18T13:52:38;1.90;;;0.50;;
74851;SDS011;63400;50.650;6.832;2023-03-18T13:55:11;4.45;;;0.60;;
74851;SDS011;63400;50.650;6.832;2023-03-18T13:57:46;2.13;;;0.68;;
74851;SDS011;63400;50.650;6.832;2023-03-18T14:00:37;10.32;;;0.80;;
74851;SDS011;63400;50.650;6.832;2023-03-18T14:13:50;2.30;;;0.75;;
74851;SDS011;63400;50.650;6.832;2023-03-18T14:16:17;3.35;;;0.68;;
74851;SDS011;63400;50.650;6.832;2023-03-18T14:21:37;3.00;;;1.00;;
74851;SDS011;63400;50.650;6.832;2023-03-18T14:24:19;3.35;;;0.88;;
74851;SDS011;63400;50.650;6.832;2023-03-18T14:32:01;3.15;;;0.68;;
74851;SDS011;63400;50.650;6.832;2023-03-18T14:34:51;2.75;;;0.85;;
74851;SDS011;63400;50.650;6.832;2023-03-18T14:37:24;1.55;;;0.75;;
74851;SDS011;63400;50.650;6.832;2023-03-18T14:39:52;1.48;;;0.50;;
74851;SDS011;63400;50.650;6.832;2023-03-18T14:47:53;2.75;;;0.60;;
74851;SDS011;63400;50.650;6.832;2023-03-18T14:50:46;3.53;;;0.43;;
74851;SDS011;63400;50.650;6.832;2023-03-18T14:53:19;5.40;;;1.25;;
74851;SDS011;63400;50.650;6.832;2023-03-18T14:55:49;4.32;;;0.30;;
74851;SDS011;63400;50.650;6.832;2023-03-18T14:58:16;4.45;;;0.73;;
74851;SDS011;63400;50.650;6.832;2023-03-18T15:00:44;1.92;;;0.60;;
74851;SDS011;63400;50.650;6.832;2023-03-18T15:03:16;2.17;;;0.50;;
74851;SDS011;63400;50.650;6.832;2023-03-18T15:05:49;1.83;;;0.40;;
74851;SDS011;63400;50.650;6.832;2023-03-18T15:08:16;2.75;;;0.30;;
74851;SDS011;63400;50.650;6.832;2023-03-18T15:10:44;3.25;;;0.52;;
74851;SDS011;63400;50.650;6.832;2023-03-18T15:13:12;3.47;;;0.70;;
74851;SDS011;63400;50.650;6.832;2023-03-18T15:15:39;4.80;;;0.80;;
74851;SDS011;63400;50.650;6.832;2023-03-18T15:21:04;2.85;;;0.52;;
74851;SDS011;63400;50.650;6.832;2023-03-18T15:23:39;2.47;;;0.75;;
74851;SDS011;63400;50.650;6.832;2023-03-18T15:26:07;7.20;;;1.08;;
74851;SDS011;63400;50.650;6.832;2023-03-18T15:28:57;1.70;;;0.68;;
74851;SDS011;63400;50.650;6.832;2023-03-18T15:31:31;2.10;;;0.43;;
74851;SDS011;63400;50.650;6.832;2023-03-18T15:36:43;2.55;;;0.65;;
74851;SDS011;63400;50.650;6.832;2023-03-18T15:39:20;2.63;;;0.50;;
74851;SDS011;63400;50.650;6.832;2023-03-18T15:41:49;2.92;;;0.50;;
74851;SDS011;63400;50.650;6.832;2023-03-18T15:44:17;2.72;;;0.30;;
74851;SDS011;63400;50.650;6.832;2023-03-18T15:46:48;6.63;;;2.00;;
74851;SDS011;63400;50.650;6.832;2023-03-18T15:49:14;4.93;;;2.13;;
74851;SDS011;63400;50.650;6.832;2023-03-18T15:51:44;4.75;;;1.60;;
74851;SDS011;63400;50.650;6.832;2023-03-18T15:54:19;4.45;;;2.03;;
74851;SDS011;63400;50.650;6.832;2023-03-18T15:56:50;2.70;;;0.80;;
74851;SDS011;63400;50.650;6.832;2023-03-18T15:59:18;1.55;;;0.63;;
74851;SDS011;63400;50.650;6.832;2023-03-18T16:01:47;1.90;;;0.45;;
74851;SDS011;63400;50.650;6.832;2023-03-18T16:04:13;1.73;;;0.63;;
74851;SDS011;63400;50.650;6.832;2023-03-18T16:06:40;1.77;;;0.30;;
74851;SDS011;63400;50.650;6.832;2023-03-18T16:09:24;1.40;;;0.35;;
74851;SDS011;63400;50.650;6.832;2023-03-18T16:11:51;1.92;;;0.50;;
74851;SDS011;63400;50.650;6.832;2023-03-18T16:14:20;2.30;;;0.47;;
74851;SDS011;63400;50.650;6.832;2023-03-18T16:16:47;2.85;;;0.63;;
74851;SDS011;63400;50.650;6.832;2023-03-18T16:19:20;4.78;;;0.93;;
74851;SDS011;63400;50.650;6.832;2023-03-18T16:21:49;2.10;;;0.77;;
74851;SDS011;63400;50.650;6.832;2023-03-18T16:24:15;2.10;;;0.88;;
74851;SDS011;63400;50.650;6.832;2023-03-18T16:26:41;3.88;;;1.30;;
74851;SDS011;63400;50.650;6.832;2023-03-18T16:29:13;2.72;;;1.13;;
74851;SDS011;63400;50.650;6.832;2023-03-18T16:31:41;3.60;;;1.70;;
74851;SDS011;63400;50.650;6.832;2023-03-18T16:34:17;3.60;;;1.80;;
74851;SDS011;63400;50.650;6.832;2023-03-18T16:36:46;3.28;;;1.05;;
74851;SDS011;63400;50.650;6.832;2023-03-18T16:39:15;1.95;;;0.50;;
74851;SDS011;63400;50.650;6.832;2023-03-18T16:41:53;2.05;;;0.82;;
74851;SDS011;63400;50.650;6.832;2023-03-18T16:44:19;4.70;;;1.20;;
74851;SDS011;63400;50.650;6.832;2023-03-18T16:49:20;5.68;;;1.88;;
74851;SDS011;63400;50.650;6.832;2023-03-18T16:51:51;4.57;;;2.33;;
74851;SDS011;63400;50.650;6.832;2023-03-18T16:54:22;4.07;;;1.27;;
74851;SDS011;63400;50.650;6.832;2023-03-18T16:56:50;2.55;;;0.82;;
74851;SDS011;63400;50.650;6.832;2023-03-18T16:59:17;2.55;;;1.00;;
74851;SDS011;63400;50.650;6.832;2023-03-18T17:01:43;2.92;;;0.60;;
74851;SDS011;63400;50.650;6.832;2023-03-18T17:04:17;3.25;;;1.10;;
74851;SDS011;63400;50.650;6.832;2023-03-18T17:06:47;1.40;;;0.63;;
74851;SDS011;63400;50.650;6.832;2023-03-18T17:09:12;1.33;;;0.40;;
74851;SDS011;63400;50.650;6.832;2023-03-18T17:11:39;4.38;;;0.95;;
74851;SDS011;63400;50.650;6.832;2023-03-18T17:14:05;1.38;;;0.75;;
74851;SDS011;63400;50.650;6.832;2023-03-18T17:16:32;1.60;;;0.98;;
74851;SDS011;63400;50.650;6.832;2023-03-18T17:18:59;2.72;;;0.60;;
74851;SDS011;63400;50.650;6.832;2023-03-18T17:21:38;2.75;;;0.80;;